createdAt,value
2022-12-08T00:01:28.630Z,11.28
2022-12-08T00:03:56.596Z,11.35
2022-12-08T00:06:47.387Z,11.34
2022-12-08T00:09:22.324Z,11.29
2022-12-08T00:11:58.114Z,11.27
2022-12-08T00:14:29.019Z,11.25
2022-12-08T00:16:56.893Z,11.15
2022-12-08T00:19:24.813Z,11.18
2022-12-08T00:21:52.888Z,11.16
2022-12-08T00:24:21.000Z,11.16
2022-12-08T00:26:47.995Z,11.14
2022-12-08T00:29:17.510Z,11.14
2022-12-08T00:31:45.011Z,11.10
2022-12-08T00:34:13.722Z,11.07
2022-12-08T00:36:41.078Z,11.05
2022-12-08T00:39:08.027Z,11.03
2022-12-08T00:41:53.404Z,11.02
2022-12-08T00:44:20.328Z,11.00
2022-12-08T00:46:48.483Z,10.98
2022-12-08T00:49:16.532Z,10.96
2022-12-08T00:51:44.120Z,10.85
2022-12-08T00:54:11.614Z,10.92
2022-12-08T00:56:39.024Z,10.89
2022-12-08T00:59:07.389Z,10.86
2022-12-08T01:01:35.485Z,10.86
2022-12-08T01:04:07.764Z,10.85
2022-12-08T01:06:38.232Z,10.82
2022-12-08T01:09:06.740Z,10.82
2022-12-08T01:11:34.547Z,10.80
2022-12-08T01:14:01.617Z,10.79
2022-12-08T01:16:32.187Z,10.77
2022-12-08T01:18:59.814Z,10.77
2022-12-08T01:21:27.167Z,10.74
2022-12-08T01:23:55.069Z,10.75
2022-12-08T01:26:22.505Z,10.72
2022-12-08T01:28:49.833Z,10.71
2022-12-08T01:31:19.801Z,10.62
2022-12-08T01:33:48.019Z,10.68
2022-12-08T01:36:29.576Z,10.58
2022-12-08T01:39:02.401Z,10.57
2022-12-08T01:41:32.743Z,10.56
2022-12-08T01:44:19.844Z,10.63
2022-12-08T01:46:50.012Z,10.62
2022-12-08T01:49:30.879Z,10.60
2022-12-08T01:52:03.505Z,10.60
2022-12-08T01:54:35.192Z,10.58
2022-12-08T01:57:12.323Z,10.58
2022-12-08T01:59:47.037Z,10.57
2022-12-08T02:02:14.248Z,10.55
2022-12-08T02:04:41.209Z,10.54
2022-12-08T02:07:10.779Z,10.54
2022-12-08T02:09:40.142Z,10.52
2022-12-08T02:12:07.793Z,10.51
2022-12-08T02:14:35.277Z,10.51
2022-12-08T02:17:43.545Z,10.51
2022-12-08T02:20:53.611Z,10.51
2022-12-08T02:23:29.315Z,10.49
2022-12-08T02:26:23.111Z,10.48
2022-12-08T02:29:22.336Z,10.39
2022-12-08T02:32:04.126Z,10.35
2022-12-08T02:34:46.265Z,10.46
2022-12-08T02:37:26.902Z,10.46
2022-12-08T02:40:21.387Z,10.44
2022-12-08T02:42:51.486Z,10.35
2022-12-08T02:45:47.347Z,10.42
2022-12-08T02:48:15.631Z,10.42
2022-12-08T02:50:42.783Z,10.41
2022-12-08T02:55:57.820Z,10.40
2022-12-08T02:58:35.574Z,10.30
2022-12-08T03:01:05.187Z,10.39
2022-12-08T03:03:37.760Z,10.39
2022-12-08T03:06:55.770Z,10.38
2022-12-08T03:09:36.477Z,10.38
2022-12-08T03:12:12.451Z,10.36
2022-12-08T03:14:44.789Z,10.27
2022-12-08T03:17:13.197Z,10.35
2022-12-08T03:19:43.591Z,10.33
2022-12-08T03:22:12.792Z,10.24
2022-12-08T03:24:46.174Z,10.32
2022-12-08T03:27:19.844Z,10.32
2022-12-08T03:29:50.300Z,10.22
2022-12-08T03:32:27.649Z,10.20
2022-12-08T03:34:56.639Z,10.30
2022-12-08T03:37:23.594Z,10.20
2022-12-08T03:39:50.399Z,10.29
2022-12-08T03:42:17.349Z,10.29
2022-12-08T03:44:44.225Z,10.29
2022-12-08T03:47:11.161Z,10.27
2022-12-08T03:49:38.118Z,10.27
2022-12-08T03:52:05.252Z,10.26
2022-12-08T03:54:32.137Z,10.26
2022-12-08T03:56:59.047Z,10.26
2022-12-08T03:59:25.865Z,10.16
2022-12-08T04:01:52.810Z,10.16
2022-12-08T04:04:19.714Z,10.23
2022-12-08T04:06:47.438Z,10.23
2022-12-08T04:09:14.333Z,10.23
2022-12-08T04:11:41.409Z,10.22
2022-12-08T04:14:08.307Z,10.21
2022-12-08T04:16:35.287Z,10.20
2022-12-08T04:19:02.346Z,10.20
2022-12-08T04:21:29.266Z,10.21
2022-12-08T04:24:00.758Z,10.19
2022-12-08T04:26:28.422Z,10.19
2022-12-08T04:28:55.260Z,10.19
2022-12-08T04:31:22.318Z,10.19
2022-12-08T04:33:49.276Z,10.18
2022-12-08T04:36:16.205Z,10.17
2022-12-08T04:38:43.121Z,10.16
2022-12-08T04:41:10.372Z,10.17
2022-12-08T04:43:37.497Z,10.15
2022-12-08T04:46:09.111Z,10.07
2022-12-08T04:48:38.618Z,10.14
2022-12-08T04:51:06.212Z,10.07
2022-12-08T04:53:33.261Z,10.13
2022-12-08T04:56:00.200Z,10.12
2022-12-08T04:58:27.067Z,10.09
2022-12-08T05:00:53.962Z,10.07
2022-12-08T05:03:26.858Z,10.04
2022-12-08T05:05:55.440Z,10.03
2022-12-08T05:08:22.348Z,9.93
2022-12-08T05:10:49.174Z,10.00
2022-12-08T05:13:16.024Z,9.99
2022-12-08T05:15:42.894Z,9.98
2022-12-08T05:18:09.756Z,9.88
2022-12-08T05:20:36.839Z,9.96
2022-12-08T05:23:03.869Z,9.96
2022-12-08T05:25:30.702Z,9.86
2022-12-08T05:28:17.663Z,9.94
2022-12-08T05:30:44.453Z,9.92
2022-12-08T05:33:11.332Z,9.92
2022-12-08T05:35:38.227Z,9.91
2022-12-08T05:38:06.042Z,9.89
2022-12-08T05:40:32.996Z,9.92
2022-12-08T05:42:59.817Z,9.85
2022-12-08T05:45:27.141Z,9.93
2022-12-08T05:47:54.337Z,9.98
2022-12-08T05:50:21.153Z,9.99
2022-12-08T05:52:47.963Z,10.05
2022-12-08T05:55:14.808Z,9.95
2022-12-08T05:57:41.592Z,10.04
2022-12-08T06:00:09.220Z,10.04
2022-12-08T06:02:36.330Z,10.08
2022-12-08T06:05:03.228Z,10.10
2022-12-08T06:07:30.155Z,10.06
2022-12-08T06:09:56.967Z,10.17
2022-12-08T06:12:24.540Z,10.21
2022-12-08T06:14:51.418Z,10.22
2022-12-08T06:17:18.230Z,10.17
2022-12-08T06:19:45.112Z,10.26
2022-12-08T06:22:12.118Z,10.31
2022-12-08T06:24:38.938Z,10.41
2022-12-08T06:27:05.837Z,10.44
2022-12-08T06:29:32.718Z,10.34
2022-12-08T06:31:59.644Z,10.43
2022-12-08T06:34:26.933Z,10.49
2022-12-08T06:36:53.704Z,10.50
2022-12-08T06:39:20.535Z,10.55
2022-12-08T06:42:05.916Z,10.49
2022-12-08T06:44:32.773Z,10.57
2022-12-08T06:46:59.643Z,10.54
2022-12-08T06:49:26.549Z,10.48
2022-12-08T06:51:53.446Z,10.42
2022-12-08T06:54:20.425Z,10.28
2022-12-08T06:56:47.369Z,10.35
2022-12-08T06:59:14.311Z,10.25
2022-12-08T07:01:41.507Z,10.32
2022-12-08T07:04:08.527Z,10.30
2022-12-08T07:06:35.544Z,10.22
2022-12-08T07:09:02.405Z,10.28
2022-12-08T07:11:29.335Z,10.28
2022-12-08T07:13:57.652Z,10.20
2022-12-08T07:16:25.006Z,10.17
2022-12-08T07:18:52.075Z,10.17
2022-12-08T07:21:19.058Z,10.26
2022-12-08T07:23:50.173Z,10.30
2022-12-08T07:26:21.076Z,10.35
2022-12-08T07:28:48.272Z,10.26
2022-12-08T07:31:25.840Z,10.12
2022-12-08T07:33:53.467Z,10.00
2022-12-08T07:36:20.463Z,10.02
2022-12-08T07:38:48.084Z,10.00
2022-12-08T07:41:17.452Z,10.02
2022-12-08T07:43:45.285Z,9.99
2022-12-08T07:46:13.862Z,9.96
2022-12-08T07:48:41.058Z,9.94
2022-12-08T07:51:08.565Z,9.93
2022-12-08T07:53:35.582Z,9.93
2022-12-08T07:56:06.995Z,9.91
2022-12-08T07:58:34.226Z,9.88
2022-12-08T08:01:01.380Z,9.87
2022-12-08T08:03:28.478Z,9.87
2022-12-08T08:05:56.023Z,9.85
2022-12-08T08:08:23.192Z,9.84
2022-12-08T08:10:50.133Z,9.83
2022-12-08T08:13:17.922Z,9.81
2022-12-08T08:15:45.131Z,9.82
2022-12-08T08:18:12.818Z,9.82
2022-12-08T08:20:40.445Z,9.81
2022-12-08T08:23:07.703Z,9.81
2022-12-08T08:25:34.818Z,9.81
2022-12-08T08:28:01.949Z,9.79
2022-12-08T08:30:28.968Z,9.69
2022-12-08T08:32:56.006Z,9.70
2022-12-08T08:35:23.125Z,9.77
2022-12-08T08:37:50.202Z,9.76
2022-12-08T08:40:18.598Z,9.76
2022-12-08T08:42:45.585Z,9.77
2022-12-08T08:45:12.839Z,9.74
2022-12-08T08:47:39.994Z,9.65
2022-12-08T08:50:08.043Z,9.73
2022-12-08T08:52:35.993Z,9.74
2022-12-08T08:55:03.523Z,9.73
2022-12-08T08:57:30.564Z,9.71
2022-12-08T08:59:57.452Z,9.71
2022-12-08T09:02:24.576Z,9.70
2022-12-08T09:04:51.719Z,9.61
2022-12-08T09:07:18.887Z,9.69
2022-12-08T09:09:46.931Z,9.69
2022-12-08T09:12:14.452Z,9.59
2022-12-08T09:14:41.635Z,9.59
2022-12-08T09:17:10.180Z,9.67
2022-12-08T09:19:37.810Z,9.68
2022-12-08T09:22:06.427Z,9.58
2022-12-08T09:24:33.548Z,9.66
2022-12-08T09:27:01.039Z,9.66
2022-12-08T09:29:32.622Z,9.66
2022-12-08T09:32:02.784Z,9.65
2022-12-08T09:34:33.066Z,9.65
2022-12-08T09:37:00.297Z,9.63
2022-12-08T09:39:27.773Z,9.64
2022-12-08T09:42:07.897Z,9.64
2022-12-08T09:44:49.211Z,9.63
2022-12-08T09:47:30.724Z,9.64
2022-12-08T09:50:26.440Z,9.62
2022-12-08T09:53:05.317Z,9.62
2022-12-08T09:55:54.375Z,9.62
2022-12-08T09:58:42.678Z,9.63
2022-12-08T10:01:11.862Z,9.61
2022-12-08T10:03:39.120Z,9.61
2022-12-08T10:06:42.928Z,9.53
2022-12-08T10:09:42.473Z,9.61
2022-12-08T10:12:23.607Z,9.61
2022-12-08T10:15:14.251Z,9.59
2022-12-08T10:17:52.644Z,9.59
2022-12-08T10:20:22.846Z,9.59
2022-12-08T10:23:13.003Z,9.60
2022-12-08T10:25:46.236Z,9.60
2022-12-08T10:28:13.831Z,9.61
2022-12-08T10:30:41.709Z,9.60
2022-12-08T10:33:17.122Z,9.61
2022-12-08T10:35:53.700Z,9.59
2022-12-08T10:38:31.078Z,9.60
2022-12-08T10:41:10.219Z,9.60
2022-12-08T10:43:47.437Z,9.60
2022-12-08T10:46:22.053Z,9.59
2022-12-08T10:49:09.404Z,9.59
2022-12-08T10:51:44.690Z,9.53
2022-12-08T10:54:33.961Z,9.60
2022-12-08T10:57:01.156Z,9.59
2022-12-08T10:59:28.610Z,9.61
2022-12-08T11:01:57.562Z,9.61
2022-12-08T11:04:36.939Z,9.61
2022-12-08T11:07:06.796Z,9.62
2022-12-08T11:09:48.517Z,9.62
2022-12-08T11:12:21.123Z,9.60
2022-12-08T11:14:50.164Z,9.61
2022-12-08T11:17:24.565Z,9.62
2022-12-08T11:20:19.436Z,9.62
2022-12-08T11:22:54.156Z,9.63
2022-12-08T11:25:27.274Z,9.63
2022-12-08T11:27:58.435Z,9.65
2022-12-08T11:30:31.051Z,9.65
2022-12-08T11:33:01.553Z,9.66
2022-12-08T11:35:37.304Z,9.68
2022-12-08T11:38:41.391Z,9.62
2022-12-08T11:41:19.325Z,9.61
2022-12-08T11:44:08.219Z,9.63
2022-12-08T11:46:48.158Z,9.74
2022-12-08T11:49:17.117Z,9.66
2022-12-08T11:52:15.948Z,9.79
2022-12-08T11:54:58.813Z,9.80
2022-12-08T11:57:29.110Z,9.81
2022-12-08T11:59:58.726Z,9.80
2022-12-08T12:02:30.198Z,9.81
2022-12-08T12:05:23.587Z,9.69
2022-12-08T12:08:06.460Z,9.78
2022-12-08T12:10:51.822Z,9.77
2022-12-08T12:13:29.630Z,9.80
2022-12-08T12:16:20.122Z,9.80
2022-12-08T12:18:59.610Z,9.80
2022-12-08T12:21:36.700Z,9.79
2022-12-08T12:24:26.107Z,9.78
2022-12-08T12:27:00.174Z,9.78
2022-12-08T12:29:35.265Z,9.77
2022-12-08T12:32:05.861Z,9.71
2022-12-08T12:34:44.644Z,9.80
2022-12-08T12:37:15.535Z,9.81
2022-12-08T12:40:02.305Z,9.83
2022-12-08T12:42:43.891Z,9.84
2022-12-08T12:45:31.531Z,9.83
2022-12-08T12:48:01.193Z,9.74
2022-12-08T12:50:34.518Z,9.77
2022-12-08T12:53:10.650Z,9.89
2022-12-08T12:55:46.700Z,9.88
2022-12-08T12:58:28.807Z,9.87
2022-12-08T13:01:11.376Z,9.76
2022-12-08T13:04:03.331Z,9.75
2022-12-08T13:06:47.393Z,9.84
2022-12-08T13:09:42.138Z,9.73
2022-12-08T13:12:12.528Z,9.82
2022-12-08T13:14:47.950Z,9.82
2022-12-08T13:17:27.994Z,9.81
2022-12-08T13:19:58.030Z,9.81
2022-12-08T13:22:46.942Z,9.82
2022-12-08T13:25:45.378Z,9.76
2022-12-08T13:28:24.932Z,9.85
2022-12-08T13:31:01.816Z,9.83
2022-12-08T13:33:32.884Z,9.81
2022-12-08T13:36:17.907Z,9.82
2022-12-08T13:38:47.517Z,9.83
2022-12-08T13:41:23.182Z,9.84
2022-12-08T13:44:50.817Z,9.86
2022-12-08T13:58:39.348Z,9.77
2022-12-08T14:01:21.098Z,9.88
2022-12-08T14:04:22.148Z,9.88
2022-12-08T14:06:46.033Z,9.89
2022-12-08T14:09:21.579Z,9.79
2022-12-08T14:12:03.964Z,9.85
2022-12-08T14:15:02.546Z,9.85
2022-12-08T14:17:31.518Z,9.84
2022-12-08T14:20:02.721Z,9.84
2022-12-08T14:22:37.109Z,9.84
2022-12-08T14:25:06.704Z,9.83
2022-12-08T14:27:37.302Z,9.85
2022-12-08T14:30:13.948Z,9.74
2022-12-08T14:32:45.165Z,9.82
2022-12-08T14:35:27.555Z,9.83
2022-12-08T14:38:16.761Z,9.82
2022-12-08T14:41:10.575Z,9.72
2022-12-08T14:43:37.497Z,9.80
2022-12-08T14:46:19.790Z,9.79
2022-12-08T14:48:47.290Z,9.79
2022-12-08T14:51:20.073Z,9.79
2022-12-08T14:54:05.663Z,9.79
2022-12-08T14:56:52.618Z,9.77
2022-12-08T14:59:25.274Z,9.77
2022-12-08T15:02:09.276Z,9.67
2022-12-08T15:04:42.668Z,9.76
2022-12-08T15:07:13.055Z,9.74
2022-12-08T15:09:49.531Z,9.77
2022-12-08T15:12:27.069Z,9.65
2022-12-08T15:14:59.073Z,9.65
2022-12-08T15:17:38.115Z,9.65
2022-12-08T15:20:07.813Z,9.72
2022-12-08T15:22:35.437Z,9.72
2022-12-08T15:25:02.720Z,9.71
2022-12-08T15:27:32.298Z,9.71
2022-12-08T15:30:04.623Z,9.72
2022-12-08T15:32:31.941Z,9.71
2022-12-08T15:34:59.009Z,9.69
2022-12-08T15:37:32.844Z,9.69
2022-12-08T15:40:01.225Z,9.69
2022-12-08T15:42:35.272Z,9.68
2022-12-08T15:45:02.397Z,9.68
2022-12-08T15:47:31.513Z,9.67
2022-12-08T15:49:58.729Z,9.59
2022-12-08T15:52:25.814Z,9.67
2022-12-08T15:54:53.487Z,9.67
2022-12-08T15:57:53.557Z,9.68
2022-12-08T16:00:55.841Z,9.68
2022-12-08T16:04:19.803Z,9.67
2022-12-08T16:09:33.833Z,9.68
2022-12-08T16:12:20.262Z,9.67
2022-12-08T16:17:36.239Z,9.68
2022-12-08T16:20:03.993Z,9.65
2022-12-08T16:25:21.751Z,9.68
2022-12-08T16:28:17.301Z,9.68
2022-12-08T16:30:42.539Z,9.68
2022-12-08T16:33:12.085Z,9.66
2022-12-08T16:35:39.541Z,9.59
2022-12-08T16:38:07.008Z,9.67
2022-12-08T16:40:55.504Z,9.60
2022-12-08T16:43:22.998Z,9.66
2022-12-08T16:45:54.835Z,9.58
2022-12-08T16:48:27.381Z,9.66
2022-12-08T16:50:56.425Z,9.66
2022-12-08T16:53:32.993Z,9.58
2022-12-08T16:56:03.948Z,9.66
2022-12-08T16:58:31.190Z,9.65
2022-12-08T17:00:59.962Z,9.65
2022-12-08T17:03:27.141Z,9.65
2022-12-08T17:05:54.660Z,9.56
2022-12-08T17:08:21.900Z,9.55
2022-12-08T17:11:07.683Z,9.64
2022-12-08T17:13:37.112Z,9.63
2022-12-08T17:16:10.316Z,9.64
2022-12-08T17:18:38.460Z,9.64
2022-12-08T17:21:14.169Z,9.64
2022-12-08T17:23:44.816Z,9.56
2022-12-08T17:26:13.135Z,9.63
2022-12-08T17:29:10.103Z,9.63
2022-12-08T17:31:31.094Z,9.63
2022-12-08T17:34:04.890Z,9.62
2022-12-08T17:36:32.319Z,9.51
2022-12-08T17:39:00.742Z,9.47
2022-12-08T17:41:29.604Z,9.54
2022-12-08T17:43:56.969Z,9.55
2022-12-08T17:46:24.812Z,9.54
2022-12-08T17:48:52.280Z,9.54
2022-12-08T17:51:19.547Z,9.54
2022-12-08T17:53:46.608Z,9.44
2022-12-08T17:56:19.887Z,9.58
2022-12-08T17:58:52.609Z,9.67
2022-12-08T18:01:21.353Z,9.64
2022-12-08T18:03:48.555Z,9.77
2022-12-08T18:06:18.070Z,9.71
2022-12-08T18:08:45.702Z,9.71
2022-12-08T18:11:19.993Z,9.83
2022-12-08T18:13:48.422Z,9.84
2022-12-08T18:16:16.368Z,9.84
2022-12-08T18:18:43.455Z,9.77
2022-12-08T18:21:11.248Z,9.88
2022-12-08T18:23:40.678Z,9.92
2022-12-08T18:26:09.734Z,9.96
2022-12-08T18:28:38.283Z,10.01
2022-12-08T18:31:14.212Z,10.05
2022-12-08T18:33:43.458Z,9.98
2022-12-08T18:36:16.582Z,10.09
2022-12-08T18:38:46.564Z,10.11
2022-12-08T18:41:16.537Z,10.13
2022-12-08T18:43:43.682Z,10.16
2022-12-08T18:46:13.203Z,10.17
2022-12-08T18:48:43.842Z,10.20
2022-12-08T18:51:12.576Z,10.14
2022-12-08T18:53:40.228Z,10.18
2022-12-08T18:56:07.918Z,10.23
2022-12-08T18:58:35.704Z,10.38
2022-12-08T19:01:03.024Z,10.33
2022-12-08T19:03:30.340Z,10.52
2022-12-08T19:06:05.604Z,10.51
2022-12-08T19:08:33.493Z,10.68
2022-12-08T19:11:01.454Z,10.72
2022-12-08T19:13:31.756Z,10.68
2022-12-08T19:15:59.000Z,10.83
2022-12-08T19:18:26.160Z,10.88
2022-12-08T19:20:57.255Z,10.84
2022-12-08T19:23:24.550Z,11.01
2022-12-08T19:25:51.807Z,11.07
2022-12-08T19:28:19.571Z,11.13
2022-12-08T19:30:47.855Z,11.11
2022-12-08T19:33:15.219Z,11.26
2022-12-08T19:35:50.731Z,11.33
2022-12-08T19:38:21.244Z,11.30
2022-12-08T19:41:09.262Z,11.46
2022-12-08T19:43:57.770Z,11.52
2022-12-08T19:46:28.247Z,11.50
2022-12-08T19:48:57.492Z,11.55
2022-12-08T19:51:28.666Z,11.70
2022-12-08T19:54:01.745Z,11.66
2022-12-08T19:56:32.643Z,11.80
2022-12-08T19:59:01.169Z,11.86
2022-12-08T20:01:29.255Z,11.90
2022-12-08T20:03:58.033Z,11.88
2022-12-08T20:06:27.735Z,12.03
2022-12-08T20:08:57.144Z,12.03
2022-12-08T20:11:26.140Z,12.07
2022-12-08T20:13:53.662Z,12.03
2022-12-08T20:16:21.972Z,12.08
2022-12-08T20:18:49.434Z,12.10
2022-12-08T20:21:17.562Z,12.04
2022-12-08T20:23:46.036Z,12.05
2022-12-08T20:26:16.734Z,12.13
2022-12-08T20:28:45.644Z,12.11
2022-12-08T20:31:28.096Z,12.13
2022-12-08T20:33:56.144Z,12.10
2022-12-08T20:36:25.817Z,12.08
2022-12-08T20:38:57.126Z,12.04
2022-12-08T20:41:25.533Z,11.94
2022-12-08T20:43:53.546Z,12.02
2022-12-08T20:46:22.795Z,12.04
2022-12-08T20:48:52.769Z,12.02
2022-12-08T20:51:28.426Z,12.06
2022-12-08T20:54:00.547Z,12.10
2022-12-08T20:56:28.564Z,12.14
2022-12-08T20:58:57.075Z,12.10
2022-12-08T21:01:26.379Z,12.22
2022-12-08T21:03:54.895Z,12.29
2022-12-08T21:06:25.093Z,12.37
2022-12-08T21:08:56.585Z,12.38
2022-12-08T21:11:25.608Z,12.43
2022-12-08T21:13:56.125Z,12.47
2022-12-08T21:16:23.524Z,12.50
2022-12-08T21:18:51.426Z,12.51
2022-12-08T21:21:18.540Z,12.52
2022-12-08T21:23:48.386Z,12.57
2022-12-08T21:26:19.302Z,12.51
2022-12-08T21:28:49.149Z,12.65
2022-12-08T21:31:19.475Z,12.60
2022-12-08T21:33:47.908Z,12.75
2022-12-08T21:36:18.840Z,12.78
2022-12-08T21:38:46.866Z,12.76
2022-12-08T21:41:43.496Z,12.86
2022-12-08T21:44:15.535Z,12.89
2022-12-08T21:46:43.729Z,12.90
2022-12-08T21:49:11.768Z,12.93
2022-12-08T21:51:42.959Z,12.91
2022-12-08T21:54:18.385Z,12.85
2022-12-08T21:56:49.092Z,12.82
2022-12-08T21:59:19.075Z,12.78
2022-12-08T22:01:47.536Z,12.75
2022-12-08T22:04:23.007Z,12.67
2022-12-08T22:06:52.648Z,12.67
2022-12-08T22:09:22.930Z,12.78
2022-12-08T22:11:52.720Z,12.76
2022-12-08T22:14:21.786Z,12.70
2022-12-08T22:16:49.883Z,12.69
2022-12-08T22:19:21.189Z,12.69
2022-12-08T22:21:50.279Z,12.67
2022-12-08T22:24:17.931Z,12.63
2022-12-08T22:26:47.950Z,12.53
2022-12-08T22:29:16.735Z,12.61
2022-12-08T22:31:45.529Z,12.60
2022-12-08T22:34:13.178Z,12.58
2022-12-08T22:36:43.657Z,12.57
2022-12-08T22:39:13.443Z,12.55
2022-12-08T22:41:40.846Z,12.53
2022-12-08T22:44:10.273Z,12.50
2022-12-08T22:46:38.554Z,12.47
2022-12-08T22:49:05.918Z,12.47
2022-12-08T22:51:40.195Z,12.47
2022-12-08T22:54:07.626Z,12.34
2022-12-08T22:56:37.149Z,12.39
2022-12-08T22:59:05.383Z,12.37
2022-12-08T23:01:34.554Z,12.34
2022-12-08T23:04:02.631Z,12.31
2022-12-08T23:06:31.671Z,12.29
2022-12-08T23:08:59.933Z,12.17
2022-12-08T23:11:30.324Z,12.14
2022-12-08T23:14:01.013Z,12.16
2022-12-08T23:16:28.916Z,12.17
2022-12-08T23:18:56.166Z,12.09
2022-12-08T23:21:23.523Z,12.06
2022-12-08T23:23:51.397Z,12.05
2022-12-08T23:26:22.043Z,12.03
2022-12-08T23:28:50.261Z,11.99
2022-12-08T23:31:18.982Z,11.96
2022-12-08T23:33:47.959Z,11.85
2022-12-08T23:36:17.167Z,11.92
2022-12-08T23:38:44.377Z,11.91
2022-12-08T23:41:14.351Z,11.92
2022-12-08T23:43:50.959Z,11.90
2022-12-08T23:46:20.287Z,11.88
2022-12-08T23:48:48.036Z,11.82
2022-12-08T23:51:15.477Z,11.80
2022-12-08T23:53:43.601Z,11.77
2022-12-08T23:56:15.010Z,11.74
2022-12-08T23:58:43.621Z,11.72
